Tyler, Alabama
Current Conditions -  °F | °C
As of 3:35 PM on Friday 19 Dec 2014 (Local Time) from KSEM Reporting Station
Drizzle Drizzle  
Wind Chill: 52°   Ceiling: 7000
Heat Index: 52°   Visibility: 10mi
Dew Point: 37°   Wind: 3mph
Humidity: 58%   Direction: 10°N
Pressure: 30.15"   Gusts: NA
Location:  32.34°N, 86.88°W
Report Text: KSEM 192135Z AUTO 01003KT 10SM -DZ SCT050 BKN070 OVC090 11/03 A3015 RMK AO2
Loading
Personal Weather Stations






























Interactive Weather Map New forecast layout! Learn more

10-Day Weather Forecast

Advertisements
Track Severe Weather on mobile